This is the latest recevied weather packets stored in our database for station/object W4UWO. If no packets are shown the sender has not sent any weather packets the latest 10 day(s).
| Time | Temp. | Humidity | Pressure | Rain* | Wind** | Luminosity | Snow |
|---|---|---|---|---|---|---|---|
| 1788121229 | 35° C | 43% | 1019.3 hPa | 0 mm | - | 708 W/m² | - |
| 1788120928 | 34.44° C | 45% | 1019.3 hPa | 0 mm | - | 762 W/m² | - |
| 1788120623 | 33.89° C | 46% | 1019.5 hPa | 0 mm | - | 212 W/m² | - |
| 1788120318 | 34.44° C | 45% | 1019.3 hPa | 0 mm | - | 205 W/m² | - |
| 1788120017 | 34.44° C | 44% | 1019.3 hPa | 0 mm | - | 583 W/m² | - |
| 1788119713 | 34.44° C | 44% | 1019.5 hPa | 0 mm | - | 805 W/m² | - |
| 1788119411 | 35° C | 43% | 1019.8 hPa | 0 mm | - | 235 W/m² | - |
| 1788119111 | 34.44° C | 43% | 1019.6 hPa | 0 mm | - | 826 W/m² | - |
| 1788118811 | 34.44° C | 44% | 1019.9 hPa | 0 mm | - | 280 W/m² | - |
| 1788118519 | 35° C | 43% | 1019.8 hPa | 0 mm | - | 824 W/m² | - |
| 1788118205 | 35° C | 44% | 1019.9 hPa | 0 mm | - | 822 W/m² | - |
| 1788117901 | 35.56° C | 41% | 1019.9 hPa | 0 mm | - | 827 W/m² | - |
| 1788117595 | 34.44° C | 45% | 1019.8 hPa | 0 mm | - | 821 W/m² | - |
| 1788117295 | 33.89° C | 46% | 1020.2 hPa | 0 mm | - | 710 W/m² | - |
| 1788116991 | 33.89° C | 48% | 1020.3 hPa | 0 mm | - | 216 W/m² | - |
| 1788116687 | 35.56° C | 45% | 1020.2 hPa | 0 mm | - | 202 W/m² | - |
| 1788116385 | 34.44° C | 46% | 1020.5 hPa | 0 mm | - | 894 W/m² | - |
| 1788116081 | 34.44° C | 45% | 1020.4 hPa | 0 mm | - | 875 W/m² | - |
| 1788115776 | 33.89° C | 45% | 1020.5 hPa | 0 mm | - | 860 W/m² | - |
| 1788115475 | 34.44° C | 48% | 1020.5 hPa | 0 mm | - | 145 W/m² | - |
| 1788115170 | 34.44° C | 47% | 1020.7 hPa | 0 mm | - | 874 W/m² | - |
| 1788114870 | 35° C | 45% | 1020.7 hPa | 0 mm | - | 869 W/m² | - |
| 1788114566 | 34.44° C | 49% | 1020.6 hPa | 0 mm | - | 846 W/m² | - |
| 1788114261 | 34.44° C | 48% | 1020.5 hPa | 0 mm | - | 850 W/m² | - |
| 1788113957 | 34.44° C | 46% | 1021 hPa | 0 mm | - | 887 W/m² | - |
* Rain latest hour (hover to see other rain measurements)
** Current wind speed in m/s (hover to see current wind gust speed)